sensor_id;sensor_type;location;lat;lon;timestamp;pressure;altitude;pressure_sealevel;temperature;humidity
82931;BME280;72705;53.346;10.248;2023-10-13T00:02:05;101252.41;;;11.94;97.17
82931;BME280;72705;53.346;10.248;2023-10-13T00:04:32;101262.28;;;12.03;97.39
82931;BME280;72705;53.346;10.248;2023-10-13T00:07:03;101249.06;;;12.00;97.11
82931;BME280;72705;53.346;10.248;2023-10-13T00:09:30;101262.66;;;12.08;97.34
82931;BME280;72705;53.346;10.248;2023-10-13T00:11:59;101260.59;;;12.02;97.22
82931;BME280;72705;53.346;10.248;2023-10-13T00:14:24;101251.63;;;12.02;97.43
82931;BME280;72705;53.346;10.248;2023-10-13T00:17:03;101245.72;;;12.06;96.77
82931;BME280;72705;53.346;10.248;2023-10-13T00:19:36;101254.53;;;12.08;97.50
82931;BME280;72705;53.346;10.248;2023-10-13T00:22:04;101240.53;;;12.13;97.40
82931;BME280;72705;53.346;10.248;2023-10-13T00:24:34;101238.34;;;12.16;96.98
82931;BME280;72705;53.346;10.248;2023-10-13T00:27:08;101222.09;;;12.08;97.45
82931;BME280;72705;53.346;10.248;2023-10-13T00:29:36;101233.28;;;12.13;97.15
82931;BME280;72705;53.346;10.248;2023-10-13T00:32:02;101227.22;;;12.20;97.48
82931;BME280;72705;53.346;10.248;2023-10-13T00:34:29;101230.97;;;12.27;96.71
82931;BME280;72705;53.346;10.248;2023-10-13T00:37:03;101230.06;;;12.18;97.31
82931;BME280;72705;53.346;10.248;2023-10-13T00:39:43;101226.56;;;12.26;96.98
82931;BME280;72705;53.346;10.248;2023-10-13T00:42:15;101220.63;;;12.22;97.63
82931;BME280;72705;53.346;10.248;2023-10-13T00:44:45;101214.38;;;12.22;97.50
82931;BME280;72705;53.346;10.248;2023-10-13T00:47:15;101211.69;;;12.22;97.68
82931;BME280;72705;53.346;10.248;2023-10-13T00:49:46;101210.34;;;12.26;97.62
82931;BME280;72705;53.346;10.248;2023-10-13T00:52:13;101213.75;;;12.28;97.30
82931;BME280;72705;53.346;10.248;2023-10-13T00:54:41;101206.28;;;12.30;97.20
82931;BME280;72705;53.346;10.248;2023-10-13T00:57:12;101213.94;;;12.34;97.36
82931;BME280;72705;53.346;10.248;2023-10-13T00:59:57;101205.28;;;12.31;97.41
82931;BME280;72705;53.346;10.248;2023-10-13T01:02:23;101205.28;;;12.31;97.68
82931;BME280;72705;53.346;10.248;2023-10-13T01:05:07;101196.47;;;12.29;97.53
82931;BME280;72705;53.346;10.248;2023-10-13T01:07:44;101198.34;;;12.28;98.08
82931;BME280;72705;53.346;10.248;2023-10-13T01:10:12;101191.75;;;12.31;98.17
82931;BME280;72705;53.346;10.248;2023-10-13T01:12:39;101176.19;;;12.25;97.98
82931;BME280;72705;53.346;10.248;2023-10-13T01:15:08;101188.06;;;12.32;97.62
82931;BME280;72705;53.346;10.248;2023-10-13T01:17:36;101189.75;;;12.33;98.07
82931;BME280;72705;53.346;10.248;2023-10-13T01:20:02;101182.66;;;12.32;98.23
82931;BME280;72705;53.346;10.248;2023-10-13T01:22:30;101172.53;;;12.34;98.16
82931;BME280;72705;53.346;10.248;2023-10-13T01:24:56;101165.75;;;12.38;97.83
82931;BME280;72705;53.346;10.248;2023-10-13T01:27:39;101172.22;;;12.45;97.87
82931;BME280;72705;53.346;10.248;2023-10-13T01:30:06;101166.47;;;12.40;97.63
82931;BME280;72705;53.346;10.248;2023-10-13T01:32:35;101160.50;;;12.36;97.87
82931;BME280;72705;53.346;10.248;2023-10-13T01:35:06;101158.84;;;12.43;98.01
82931;BME280;72705;53.346;10.248;2023-10-13T01:37:32;101171.03;;;12.47;97.71
82931;BME280;72705;53.346;10.248;2023-10-13T01:39:57;101162.06;;;12.47;98.25
82931;BME280;72705;53.346;10.248;2023-10-13T01:42:22;101156.66;;;12.47;97.86
82931;BME280;72705;53.346;10.248;2023-10-13T01:44:50;101159.53;;;12.45;98.38
82931;BME280;72705;53.346;10.248;2023-10-13T01:47:15;101150.56;;;12.53;98.02
82931;BME280;72705;53.346;10.248;2023-10-13T01:49:44;101145.16;;;12.53;97.69
82931;BME280;72705;53.346;10.248;2023-10-13T01:52:13;101139.94;;;12.51;98.32
82931;BME280;72705;53.346;10.248;2023-10-13T01:54:44;101140.09;;;12.50;98.13
82931;BME280;72705;53.346;10.248;2023-10-13T01:57:12;101135.38;;;12.52;98.24
82931;BME280;72705;53.346;10.248;2023-10-13T01:59:45;101129.31;;;12.58;97.90
82931;BME280;72705;53.346;10.248;2023-10-13T02:02:13;101132.50;;;12.62;98.03
82931;BME280;72705;53.346;10.248;2023-10-13T02:04:39;101132.00;;;12.66;97.52
82931;BME280;72705;53.346;10.248;2023-10-13T02:07:14;101117.81;;;12.64;97.96
82931;BME280;72705;53.346;10.248;2023-10-13T02:09:41;101110.69;;;12.63;98.22
82931;BME280;72705;53.346;10.248;2023-10-13T02:12:08;101112.41;;;12.64;98.08
82931;BME280;72705;53.346;10.248;2023-10-13T02:14:35;101108.69;;;12.65;98.76
82931;BME280;72705;53.346;10.248;2023-10-13T02:17:02;101106.47;;;12.69;98.20
82931;BME280;72705;53.346;10.248;2023-10-13T02:19:42;101088.03;;;12.72;97.98
82931;BME280;72705;53.346;10.248;2023-10-13T02:22:12;101100.91;;;12.70;98.74
82931;BME280;72705;53.346;10.248;2023-10-13T02:24:49;101092.44;;;12.65;99.05
82931;BME280;72705;53.346;10.248;2023-10-13T02:27:17;101090.56;;;12.66;99.17
82931;BME280;72705;53.346;10.248;2023-10-13T02:29:42;101083.97;;;12.68;98.66
82931;BME280;72705;53.346;10.248;2023-10-13T02:32:11;101086.38;;;12.71;99.16
82931;BME280;72705;53.346;10.248;2023-10-13T02:34:55;101086.00;;;12.74;98.92
82931;BME280;72705;53.346;10.248;2023-10-13T02:37:30;101076.88;;;12.75;99.28
82931;BME280;72705;53.346;10.248;2023-10-13T02:39:56;101072.81;;;12.79;99.06
82931;BME280;72705;53.346;10.248;2023-10-13T02:42:23;101069.78;;;12.74;99.48
82931;BME280;72705;53.346;10.248;2023-10-13T02:44:49;101064.34;;;12.74;99.57
82931;BME280;72705;53.346;10.248;2023-10-13T02:47:14;101058.09;;;12.74;99.70
82931;BME280;72705;53.346;10.248;2023-10-13T02:49:40;101055.56;;;12.80;99.44
82931;BME280;72705;53.346;10.248;2023-10-13T02:52:11;101054.56;;;12.81;99.62
82931;BME280;72705;53.346;10.248;2023-10-13T02:54:41;101054.88;;;12.78;99.98
82931;BME280;72705;53.346;10.248;2023-10-13T02:57:15;101056.56;;;12.79;100.00
82931;BME280;72705;53.346;10.248;2023-10-13T02:59:42;101049.13;;;12.81;100.00
82931;BME280;72705;53.346;10.248;2023-10-13T03:02:21;101040.66;;;12.84;99.88
82931;BME280;72705;53.346;10.248;2023-10-13T03:04:51;101043.38;;;12.84;100.00
82931;BME280;72705;53.346;10.248;2023-10-13T03:07:17;101045.75;;;12.87;100.00
82931;BME280;72705;53.346;10.248;2023-10-13T03:09:51;101033.56;;;12.91;100.00
82931;BME280;72705;53.346;10.248;2023-10-13T03:12:17;101038.28;;;12.97;100.00
82931;BME280;72705;53.346;10.248;2023-10-13T03:14:43;101021.72;;;13.01;100.00
82931;BME280;72705;53.346;10.248;2023-10-13T03:17:20;101013.91;;;13.06;100.00
82931;BME280;72705;53.346;10.248;2023-10-13T03:19:58;101013.56;;;13.09;100.00
82931;BME280;72705;53.346;10.248;2023-10-13T03:22:23;101010.53;;;13.20;100.00
82931;BME280;72705;53.346;10.248;2023-10-13T03:24:56;101004.75;;;13.23;100.00
82931;BME280;72705;53.346;10.248;2023-10-13T03:27:26;101001.03;;;13.32;100.00
82931;BME280;72705;53.346;10.248;2023-10-13T03:30:05;100997.63;;;13.38;100.00
82931;BME280;72705;53.346;10.248;2023-10-13T03:32:36;100988.09;;;13.42;100.00
82931;BME280;72705;53.346;10.248;2023-10-13T03:35:07;100986.56;;;13.48;100.00
82931;BME280;72705;53.346;10.248;2023-10-13T03:37:38;100985.00;;;13.53;100.00
82931;BME280;72705;53.346;10.248;2023-10-13T03:40:11;100987.31;;;13.64;100.00
82931;BME280;72705;53.346;10.248;2023-10-13T03:42:53;100983.25;;;13.68;100.00
82931;BME280;72705;53.346;10.248;2023-10-13T03:45:40;100983.91;;;13.70;100.00
82931;BME280;72705;53.346;10.248;2023-10-13T03:50:50;100981.66;;;13.82;100.00
82931;BME280;72705;53.346;10.248;2023-10-13T03:53:39;100974.72;;;13.80;100.00
82931;BME280;72705;53.346;10.248;2023-10-13T03:56:26;100974.34;;;13.83;100.00
82931;BME280;72705;53.346;10.248;2023-10-13T03:58:53;100966.41;;;13.81;100.00
82931;BME280;72705;53.346;10.248;2023-10-13T04:01:20;100956.41;;;13.82;100.00
82931;BME280;72705;53.346;10.248;2023-10-13T04:03:50;100952.31;;;13.86;100.00
82931;BME280;72705;53.346;10.248;2023-10-13T04:06:23;100948.22;;;13.90;100.00
82931;BME280;72705;53.346;10.248;2023-10-13T04:09:09;100941.91;;;13.97;100.00
82931;BME280;72705;53.346;10.248;2023-10-13T04:11:53;100943.13;;;13.95;100.00
82931;BME280;72705;53.346;10.248;2023-10-13T04:14:24;100930.50;;;14.02;100.00
82931;BME280;72705;53.346;10.248;2023-10-13T04:17:10;100939.31;;;14.04;100.00
82931;BME280;72705;53.346;10.248;2023-10-13T04:19:48;100944.88;;;14.10;100.00
82931;BME280;72705;53.346;10.248;2023-10-13T04:22:38;100942.63;;;14.14;100.00
82931;BME280;72705;53.346;10.248;2023-10-13T04:27:58;100944.13;;;14.16;100.00
82931;BME280;72705;53.346;10.248;2023-10-13T04:30:42;100935.63;;;14.19;100.00
82931;BME280;72705;53.346;10.248;2023-10-13T04:33:14;100928.31;;;14.20;100.00
82931;BME280;72705;53.346;10.248;2023-10-13T04:36:04;100936.78;;;14.25;100.00
82931;BME280;72705;53.346;10.248;2023-10-13T04:38:47;100927.25;;;14.29;100.00
82931;BME280;72705;53.346;10.248;2023-10-13T04:41:18;100903.00;;;14.28;100.00
82931;BME280;72705;53.346;10.248;2023-10-13T04:43:48;100899.38;;;14.35;100.00
82931;BME280;72705;53.346;10.248;2023-10-13T04:46:25;100904.28;;;14.40;100.00
82931;BME280;72705;53.346;10.248;2023-10-13T04:49:00;100889.03;;;14.39;100.00
82931;BME280;72705;53.346;10.248;2023-10-13T04:51:34;100884.09;;;14.42;100.00
82931;BME280;72705;53.346;10.248;2023-10-13T04:54:15;100884.56;;;14.46;100.00
82931;BME280;72705;53.346;10.248;2023-10-13T04:56:51;100880.94;;;14.53;100.00
82931;BME280;72705;53.346;10.248;2023-10-13T04:59:46;100865.66;;;14.52;100.00
82931;BME280;72705;53.346;10.248;2023-10-13T05:02:42;100864.06;;;14.58;100.00
82931;BME280;72705;53.346;10.248;2023-10-13T05:05:27;100858.13;;;14.63;100.00
82931;BME280;72705;53.346;10.248;2023-10-13T05:07:56;100859.03;;;14.70;100.00
82931;BME280;72705;53.346;10.248;2023-10-13T05:10:39;100849.94;;;14.77;100.00
82931;BME280;72705;53.346;10.248;2023-10-13T05:13:23;100842.84;;;14.76;100.00
82931;BME280;72705;53.346;10.248;2023-10-13T05:16:08;100841.25;;;14.82;100.00
82931;BME280;72705;53.346;10.248;2023-10-13T05:18:51;100829.53;;;14.81;100.00
82931;BME280;72705;53.346;10.248;2023-10-13T05:21:35;100831.50;;;14.87;100.00
82931;BME280;72705;53.346;10.248;2023-10-13T05:24:19;100828.59;;;14.89;100.00
82931;BME280;72705;53.346;10.248;2023-10-13T05:27:03;100827.84;;;14.95;100.00
82931;BME280;72705;53.346;10.248;2023-10-13T05:29:48;100824.09;;;14.96;100.00
82931;BME280;72705;53.346;10.248;2023-10-13T05:32:32;100827.56;;;15.05;100.00
82931;BME280;72705;53.346;10.248;2023-10-13T05:35:18;100822.31;;;15.03;100.00
82931;BME280;72705;53.346;10.248;2023-10-13T05:38:02;100809.75;;;15.02;100.00
82931;BME280;72705;53.346;10.248;2023-10-13T05:40:57;100815.19;;;15.02;100.00
82931;BME280;72705;53.346;10.248;2023-10-13T05:43:41;100811.13;;;15.13;100.00
82931;BME280;72705;53.346;10.248;2023-10-13T05:46:25;100806.75;;;15.12;100.00
82931;BME280;72705;53.346;10.248;2023-10-13T05:48:53;100809.75;;;15.17;99.91
82931;BME280;72705;53.346;10.248;2023-10-13T05:51:28;100804.50;;;15.15;100.00
82931;BME280;72705;53.346;10.248;2023-10-13T05:54:12;100802.44;;;15.17;100.00
82931;BME280;72705;53.346;10.248;2023-10-13T05:56:41;100801.66;;;15.23;99.87
82931;BME280;72705;53.346;10.248;2023-10-13T05:59:26;100799.97;;;15.22;100.00
82931;BME280;72705;53.346;10.248;2023-10-13T06:02:10;100796.69;;;15.27;99.67
82931;BME280;72705;53.346;10.248;2023-10-13T06:04:54;100797.69;;;15.26;100.00
82931;BME280;72705;53.346;10.248;2023-10-13T06:07:38;100802.78;;;15.29;100.00
82931;BME280;72705;53.346;10.248;2023-10-13T06:10:22;100799.22;;;15.28;100.00
82931;BME280;72705;53.346;10.248;2023-10-13T06:13:06;100799.28;;;15.35;99.72
82931;BME280;72705;53.346;10.248;2023-10-13T06:15:50;100795.47;;;15.29;100.00
82931;BME280;72705;53.346;10.248;2023-10-13T06:18:34;100800.50;;;15.32;99.77
82931;BME280;72705;53.346;10.248;2023-10-13T06:21:20;100793.66;;;15.36;99.68
82931;BME280;72705;53.346;10.248;2023-10-13T06:24:04;100800.56;;;15.39;99.83
82931;BME280;72705;53.346;10.248;2023-10-13T06:26:48;100794.38;;;15.45;99.27
82931;BME280;72705;53.346;10.248;2023-10-13T06:29:32;100787.72;;;15.48;99.49
82931;BME280;72705;53.346;10.248;2023-10-13T06:31:58;100789.69;;;15.54;99.12
82931;BME280;72705;53.346;10.248;2023-10-13T06:34:29;100783.56;;;15.52;99.26
82931;BME280;72705;53.346;10.248;2023-10-13T06:37:16;100779.06;;;15.59;98.70
82931;BME280;72705;53.346;10.248;2023-10-13T06:39:49;100767.78;;;15.62;98.65
82931;BME280;72705;53.346;10.248;2023-10-13T06:42:15;100778.03;;;15.60;99.02
82931;BME280;72705;53.346;10.248;2023-10-13T06:44:42;100776.59;;;15.64;98.68
82931;BME280;72705;53.346;10.248;2023-10-13T06:47:11;100768.19;;;15.59;99.05
82931;BME280;72705;53.346;10.248;2023-10-13T06:49:37;100768.56;;;15.56;99.07
82931;BME280;72705;53.346;10.248;2023-10-13T06:52:05;100769.81;;;15.53;99.65
82931;BME280;72705;53.346;10.248;2023-10-13T06:54:35;100758.09;;;15.53;99.69
82931;BME280;72705;53.346;10.248;2023-10-13T06:57:01;100769.41;;;15.56;99.46
82931;BME280;72705;53.346;10.248;2023-10-13T06:59:29;100766.06;;;15.54;99.68
82931;BME280;72705;53.346;10.248;2023-10-13T07:02:00;100761.47;;;15.55;99.67
82931;BME280;72705;53.346;10.248;2023-10-13T07:04:35;100754.34;;;15.54;100.00
82931;BME280;72705;53.346;10.248;2023-10-13T07:07:05;100757.69;;;15.56;99.63
82931;BME280;72705;53.346;10.248;2023-10-13T07:09:31;100743.06;;;15.57;99.73
82931;BME280;72705;53.346;10.248;2023-10-13T07:11:59;100750.19;;;15.58;100.00
82931;BME280;72705;53.346;10.248;2023-10-13T07:14:27;100746.88;;;15.62;99.86
82931;BME280;72705;53.346;10.248;2023-10-13T07:17:05;100746.56;;;15.72;99.34
82931;BME280;72705;53.346;10.248;2023-10-13T07:19:33;100749.22;;;15.65;99.79
82931;BME280;72705;53.346;10.248;2023-10-13T07:21:59;100737.94;;;15.68;99.52
82931;BME280;72705;53.346;10.248;2023-10-13T07:24:29;100733.09;;;15.64;99.93
82931;BME280;72705;53.346;10.248;2023-10-13T07:27:00;100726.63;;;15.65;99.78
82931;BME280;72705;53.346;10.248;2023-10-13T07:29:30;100727.28;;;15.67;99.91
82931;BME280;72705;53.346;10.248;2023-10-13T07:31:55;100719.69;;;15.62;99.90
82931;BME280;72705;53.346;10.248;2023-10-13T07:34:21;100721.56;;;15.62;100.00
82931;BME280;72705;53.346;10.248;2023-10-13T07:36:57;100714.66;;;15.59;100.00
82931;BME280;72705;53.346;10.248;2023-10-13T07:39:25;100705.41;;;15.54;100.00
82931;BME280;72705;53.346;10.248;2023-10-13T07:41:52;100710.00;;;15.53;100.00
82931;BME280;72705;53.346;10.248;2023-10-13T07:44:28;100699.56;;;15.57;100.00
82931;BME280;72705;53.346;10.248;2023-10-13T07:46:57;100685.53;;;15.53;100.00
82931;BME280;72705;53.346;10.248;2023-10-13T07:49:36;100685.53;;;15.53;100.00
82931;BME280;72705;53.346;10.248;2023-10-13T07:52:06;100676.13;;;15.56;100.00
82931;BME280;72705;53.346;10.248;2023-10-13T07:54:52;100663.25;;;15.64;100.00
82931;BME280;72705;53.346;10.248;2023-10-13T07:57:40;100655.28;;;15.63;100.00
82931;BME280;72705;53.346;10.248;2023-10-13T08:00:22;100651.28;;;15.59;100.00
82931;BME280;72705;53.346;10.248;2023-10-13T08:03:00;100639.38;;;15.60;100.00
82931;BME280;72705;53.346;10.248;2023-10-13T08:05:51;100635.69;;;15.67;100.00
82931;BME280;72705;53.346;10.248;2023-10-13T08:08:44;100631.09;;;15.74;100.00
82931;BME280;72705;53.346;10.248;2023-10-13T08:11:14;100617.91;;;15.71;100.00
82931;BME280;72705;53.346;10.248;2023-10-13T08:13:49;100612.44;;;15.65;100.00
82931;BME280;72705;53.346;10.248;2023-10-13T08:16:29;100605.31;;;15.64;100.00
82931;BME280;72705;53.346;10.248;2023-10-13T08:19:14;100600.91;;;15.63;100.00
82931;BME280;72705;53.346;10.248;2023-10-13T08:21:41;100594.44;;;15.64;100.00
82931;BME280;72705;53.346;10.248;2023-10-13T08:24:15;100595.09;;;15.66;100.00
82931;BME280;72705;53.346;10.248;2023-10-13T08:26:41;100591.06;;;15.62;100.00
82931;BME280;72705;53.346;10.248;2023-10-13T08:29:24;100589.00;;;15.64;100.00
82931;BME280;72705;53.346;10.248;2023-10-13T08:31:54;100593.41;;;15.65;100.00
82931;BME280;72705;53.346;10.248;2023-10-13T08:34:29;100584.25;;;15.72;100.00
82931;BME280;72705;53.346;10.248;2023-10-13T08:37:04;100584.22;;;15.66;100.00
82931;BME280;72705;53.346;10.248;2023-10-13T08:39:49;100583.75;;;15.62;100.00
82931;BME280;72705;53.346;10.248;2023-10-13T08:42:44;100587.97;;;15.65;100.00
82931;BME280;72705;53.346;10.248;2023-10-13T08:45:16;100589.78;;;15.58;100.00
82931;BME280;72705;53.346;10.248;2023-10-13T08:47:51;100583.44;;;15.51;100.00
82931;BME280;72705;53.346;10.248;2023-10-13T08:50:22;100582.41;;;15.52;100.00
82931;BME280;72705;53.346;10.248;2023-10-13T08:53:14;100594.50;;;15.49;100.00
82931;BME280;72705;53.346;10.248;2023-10-13T08:56:02;100591.25;;;15.54;100.00
82931;BME280;72705;53.346;10.248;2023-10-13T08:58:32;100578.41;;;15.48;100.00
82931;BME280;72705;53.346;10.248;2023-10-13T09:01:20;100581.13;;;15.48;100.00
82931;BME280;72705;53.346;10.248;2023-10-13T09:04:09;100585.13;;;15.52;100.00
82931;BME280;72705;53.346;10.248;2023-10-13T09:06:48;100581.41;;;15.53;100.00
82931;BME280;72705;53.346;10.248;2023-10-13T09:12:14;100599.63;;;15.59;100.00
82931;BME280;72705;53.346;10.248;2023-10-13T09:14:41;100601.31;;;15.60;100.00
82931;BME280;72705;53.346;10.248;2023-10-13T09:17:12;100610.38;;;15.67;100.00
82931;BME280;72705;53.346;10.248;2023-10-13T09:19:52;100632.97;;;15.74;100.00
82931;BME280;72705;53.346;10.248;2023-10-13T09:22:25;100608.91;;;15.71;100.00
82931;BME280;72705;53.346;10.248;2023-10-13T09:25:01;100593.88;;;15.75;100.00
82931;BME280;72705;53.346;10.248;2023-10-13T09:27:29;100602.75;;;15.90;100.00
82931;BME280;72705;53.346;10.248;2023-10-13T09:30:01;100584.59;;;15.97;100.00
82931;BME280;72705;53.346;10.248;2023-10-13T09:32:59;100574.59;;;16.04;100.00
82931;BME280;72705;53.346;10.248;2023-10-13T09:35:27;100567.28;;;16.11;100.00
82931;BME280;72705;53.346;10.248;2023-10-13T09:37:53;100564.00;;;16.29;99.00
82931;BME280;72705;53.346;10.248;2023-10-13T09:40:23;100557.53;;;16.43;97.97
82931;BME280;72705;53.346;10.248;2023-10-13T09:43:01;100560.72;;;16.53;97.65
82931;BME280;72705;53.346;10.248;2023-10-13T09:45:33;100564.56;;;16.66;96.30
82931;BME280;72705;53.346;10.248;2023-10-13T09:48:09;100551.56;;;16.87;94.67
82931;BME280;72705;53.346;10.248;2023-10-13T09:50:43;100546.31;;;16.79;95.39
82931;BME280;72705;53.346;10.248;2023-10-13T09:53:10;100555.78;;;16.90;94.43
82931;BME280;72705;53.346;10.248;2023-10-13T09:55:42;100550.34;;;16.90;93.75
82931;BME280;72705;53.346;10.248;2023-10-13T09:58:11;100550.31;;;16.83;94.86
82931;BME280;72705;53.346;10.248;2023-10-13T10:00:47;100546.56;;;16.91;94.49
82931;BME280;72705;53.346;10.248;2023-10-13T10:03:31;100539.84;;;17.00;93.54
82931;BME280;72705;53.346;10.248;2023-10-13T10:06:00;100531.88;;;16.98;93.80
82931;BME280;72705;53.346;10.248;2023-10-13T10:08:33;100511.34;;;16.96;94.28
82931;BME280;72705;53.346;10.248;2023-10-13T10:11:23;100511.97;;;16.91;94.65
82931;BME280;72705;53.346;10.248;2023-10-13T10:14:08;100504.63;;;16.85;95.40
82931;BME280;72705;53.346;10.248;2023-10-13T10:16:50;100501.09;;;16.78;95.81
82931;BME280;72705;53.346;10.248;2023-10-13T10:19:20;100506.94;;;16.88;95.39
82931;BME280;72705;53.346;10.248;2023-10-13T10:21:45;100511.34;;;16.89;95.33
82931;BME280;72705;53.346;10.248;2023-10-13T10:24:15;100513.00;;;17.04;94.68
82931;BME280;72705;53.346;10.248;2023-10-13T10:26:53;100504.22;;;17.08;95.16
82931;BME280;72705;53.346;10.248;2023-10-13T10:29:18;100489.09;;;17.19;94.93
82931;BME280;72705;53.346;10.248;2023-10-13T10:31:44;100495.78;;;17.36;94.63
82931;BME280;72705;53.346;10.248;2023-10-13T10:34:15;100488.19;;;17.51;93.82
82931;BME280;72705;53.346;10.248;2023-10-13T10:36:46;100488.59;;;17.55;94.01
82931;BME280;72705;53.346;10.248;2023-10-13T10:39:11;100476.00;;;17.60;93.60
82931;BME280;72705;53.346;10.248;2023-10-13T10:41:37;100474.31;;;17.59;93.91
82931;BME280;72705;53.346;10.248;2023-10-13T10:44:13;100464.44;;;17.71;93.19
82931;BME280;72705;53.346;10.248;2023-10-13T10:46:42;100452.59;;;17.91;92.38
82931;BME280;72705;53.346;10.248;2023-10-13T10:49:18;100438.53;;;17.94;92.66
82931;BME280;72705;53.346;10.248;2023-10-13T10:51:57;100436.75;;;18.12;92.39
82931;BME280;72705;53.346;10.248;2023-10-13T10:54:23;100433.44;;;18.35;91.51
82931;BME280;72705;53.346;10.248;2023-10-13T10:56:55;100422.66;;;18.40;90.46
82931;BME280;72705;53.346;10.248;2023-10-13T10:59:21;100416.03;;;18.30;92.04
82931;BME280;72705;53.346;10.248;2023-10-13T11:01:50;100409.53;;;18.31;90.94
82931;BME280;72705;53.346;10.248;2023-10-13T11:04:18;100410.06;;;18.39;91.40
82931;BME280;72705;53.346;10.248;2023-10-13T11:06:56;100399.03;;;18.28;90.58
82931;BME280;72705;53.346;10.248;2023-10-13T11:09:27;100409.31;;;18.32;91.02
82931;BME280;72705;53.346;10.248;2023-10-13T11:12:15;100396.28;;;18.28;91.54
82931;BME280;72705;53.346;10.248;2023-10-13T11:14:44;100392.03;;;18.38;91.30
82931;BME280;72705;53.346;10.248;2023-10-13T11:17:19;100381.44;;;18.48;90.57
82931;BME280;72705;53.346;10.248;2023-10-13T11:19:51;100381.44;;;18.48;91.17
82931;BME280;72705;53.346;10.248;2023-10-13T11:22:18;100376.31;;;18.58;89.67
82931;BME280;72705;53.346;10.248;2023-10-13T11:25:08;100375.28;;;18.59;89.63
82931;BME280;72705;53.346;10.248;2023-10-13T11:27:41;100368.78;;;18.79;89.60
82931;BME280;72705;53.346;10.248;2023-10-13T11:30:17;100371.81;;;18.89;89.32
82931;BME280;72705;53.346;10.248;2023-10-13T11:33:08;100375.09;;;19.16;88.19
82931;BME280;72705;53.346;10.248;2023-10-13T11:35:38;100355.44;;;19.25;87.86
82931;BME280;72705;53.346;10.248;2023-10-13T11:38:28;100341.91;;;19.30;87.71
82931;BME280;72705;53.346;10.248;2023-10-13T11:40:59;100325.81;;;19.22;87.21
82931;BME280;72705;53.346;10.248;2023-10-13T11:46:12;100314.22;;;19.38;86.98
82931;BME280;72705;53.346;10.248;2023-10-13T11:48:42;100307.34;;;19.36;86.65
82931;BME280;72705;53.346;10.248;2023-10-13T11:51:12;100283.56;;;19.55;85.97
82931;BME280;72705;53.346;10.248;2023-10-13T11:53:51;100267.72;;;19.57;85.76
82931;BME280;72705;53.346;10.248;2023-10-13T11:56:17;100275.38;;;19.66;85.11
82931;BME280;72705;53.346;10.248;2023-10-13T11:58:46;100287.03;;;19.62;85.62
82931;BME280;72705;53.346;10.248;2023-10-13T12:01:12;100284.19;;;19.68;84.47
82931;BME280;72705;53.346;10.248;2023-10-13T12:03:37;100279.81;;;19.79;83.21
82931;BME280;72705;53.346;10.248;2023-10-13T12:06:21;100294.91;;;19.82;82.94
82931;BME280;72705;53.346;10.248;2023-10-13T12:09:04;100297.47;;;20.06;82.12
82931;BME280;72705;53.346;10.248;2023-10-13T12:11:46;100295.56;;;20.18;82.53
82931;BME280;72705;53.346;10.248;2023-10-13T12:14:13;100289.28;;;20.18;82.17
82931;BME280;72705;53.346;10.248;2023-10-13T12:16:47;100289.53;;;20.16;82.77
82931;BME280;72705;53.346;10.248;2023-10-13T12:19:25;100289.25;;;20.06;82.86
82931;BME280;72705;53.346;10.248;2023-10-13T12:21:56;100280.63;;;20.33;82.73
82931;BME280;72705;53.346;10.248;2023-10-13T12:24:23;100294.44;;;20.38;81.69
82931;BME280;72705;53.346;10.248;2023-10-13T12:27:01;100297.13;;;20.26;82.91
82931;BME280;72705;53.346;10.248;2023-10-13T12:29:26;100279.97;;;20.31;81.89
82931;BME280;72705;53.346;10.248;2023-10-13T12:31:56;100278.81;;;20.38;81.79
82931;BME280;72705;53.346;10.248;2023-10-13T12:34:35;100264.66;;;20.30;82.91
82931;BME280;72705;53.346;10.248;2023-10-13T12:37:19;100262.03;;;20.11;83.06
82931;BME280;72705;53.346;10.248;2023-10-13T12:40:07;100263.41;;;20.02;82.92
82931;BME280;72705;53.346;10.248;2023-10-13T12:43:06;100247.94;;;20.19;82.92
82931;BME280;72705;53.346;10.248;2023-10-13T12:45:51;100256.91;;;20.50;81.65
82931;BME280;72705;53.346;10.248;2023-10-13T12:48:37;100263.47;;;20.49;81.47
82931;BME280;72705;53.346;10.248;2023-10-13T12:51:23;100253.69;;;20.53;81.56
82931;BME280;72705;53.346;10.248;2023-10-13T12:53:58;100247.28;;;20.47;81.43
82931;BME280;72705;53.346;10.248;2023-10-13T12:56:42;100249.41;;;20.57;80.58
82931;BME280;72705;53.346;10.248;2023-10-13T12:59:10;100247.38;;;20.52;79.90
82931;BME280;72705;53.346;10.248;2023-10-13T13:01:42;100238.94;;;20.54;80.33
82931;BME280;72705;53.346;10.248;2023-10-13T13:04:11;100245.59;;;20.58;80.32
82931;BME280;72705;53.346;10.248;2023-10-13T13:06:47;100192.97;;;20.33;80.30
82931;BME280;72705;53.346;10.248;2023-10-13T13:09:12;100240.19;;;20.75;78.58
82931;BME280;72705;53.346;10.248;2023-10-13T13:11:38;100240.41;;;20.85;78.75
82931;BME280;72705;53.346;10.248;2023-10-13T13:14:07;100192.75;;;20.74;78.25
82931;BME280;72705;53.346;10.248;2023-10-13T13:16:33;100198.97;;;20.70;79.03
82931;BME280;72705;53.346;10.248;2023-10-13T13:18:59;100178.75;;;20.59;78.25
82931;BME280;72705;53.346;10.248;2023-10-13T13:21:28;100179.69;;;20.65;78.60
82931;BME280;72705;53.346;10.248;2023-10-13T13:23:53;100177.63;;;20.72;78.34